地図

経路データ

SID SEASON NUMBER BASIN SUBBASIN NAME ISO_TIME NATURE LAT LON WMO_WIND WMO_PRES WMO_AGENCY TRACK_TYPE DIST2LAND LANDFALL IFLAG USA_AGENCY USA_ATCF_ID USA_LAT USA_LON USA_RECORD USA_STATUS USA_WIND USA_PRES USA_SSHS USA_R34_NE USA_R34_SE USA_R34_SW USA_R34_NW USA_R50_NE USA_R50_SE USA_R50_SW USA_R50_NW USA_R64_NE USA_R64_SE USA_R64_SW USA_R64_NW USA_POCI USA_ROCI USA_RMW USA_EYE TOKYO_LAT TOKYO_LON TOKYO_GRADE TOKYO_WIND TOKYO_PRES TOKYO_R50_DIR TOKYO_R50_LONG TOKYO_R50_SHORT TOKYO_R30_DIR TOKYO_R30_LONG TOKYO_R30_SHORT TOKYO_LAND CMA_LAT CMA_LON CMA_CAT CMA_WIND CMA_PRES HKO_LAT HKO_LON HKO_CAT HKO_WIND HKO_PRES NEWDELHI_LAT NEWDELHI_LON NEWDELHI_GRADE NEWDELHI_WIND NEWDELHI_PRES NEWDELHI_CI NEWDELHI_DP NEWDELHI_POCI REUNION_LAT REUNION_LON REUNION_TYPE REUNION_WIND REUNION_PRES REUNION_TNUM REUNION_CI REUNION_RMW REUNION_R34_NE REUNION_R34_SE REUNION_R34_SW REUNION_R34_NW REUNION_R50_NE REUNION_R50_SE REUNION_R50_SW REUNION_R50_NW REUNION_R64_NE REUNION_R64_SE REUNION_R64_SW REUNION_R64_NW BOM_LAT BOM_LON BOM_TYPE BOM_WIND BOM_PRES BOM_TNUM BOM_CI BOM_RMW BOM_R34_NE BOM_R34_SE BOM_R34_SW BOM_R34_NW BOM_R50_NE BOM_R50_SE BOM_R50_SW BOM_R50_NW BOM_R64_NE BOM_R64_SE BOM_R64_SW BOM_R64_NW BOM_ROCI BOM_POCI BOM_EYE BOM_POS_METHOD BOM_PRES_METHOD NADI_LAT NADI_LON NADI_CAT NADI_WIND NADI_PRES WELLINGTON_LAT WELLINGTON_LON WELLINGTON_WIND WELLINGTON_PRES DS824_LAT DS824_LON DS824_STAGE DS824_WIND DS824_PRES TD9636_LAT TD9636_LON TD9636_STAGE TD9636_WIND TD9636_PRES TD9635_LAT TD9635_LON TD9635_WIND TD9635_PRES TD9635_ROCI NEUMANN_LAT NEUMANN_LON NEUMANN_CLASS NEUMANN_WIND NEUMANN_PRES MLC_LAT MLC_LON MLC_CLASS MLC_WIND MLC_PRES USA_GUST BOM_GUST BOM_GUST_PER REUNION_GUST REUNION_GUST_PER USA_SEAHGT USA_SEARAD_NE USA_SEARAD_SE USA_SEARAD_SW USA_SEARAD_NW STORM_SPEED STORM_DIR
1970351S17176 1971 156 SP MM PRISCILLA 1970-12-16 12:00:00 TS -16.5000 176.000 30 997 wellington main 193 158 ________O___O_ -1 -16.5000 176.000 30 997 -16.5000 176.000 TC 20 8 167
1970351S17176 1971 156 SP MM PRISCILLA 1970-12-16 15:00:00 TS -16.9059 176.101 main 158 131 ________P___P_ -1 -16.9143 176.099 32 995 -16.8975 176.102 TC 22 8 167
1970351S17176 1971 156 SP MM PRISCILLA 1970-12-16 18:00:00 TS -17.3114 176.200 main 131 101 ________P___O_ -1 -17.3228 176.199 35 993 -17.3000 176.200 TC 25 8 167
1970351S17176 1971 156 SP MM PRISCILLA 1970-12-16 21:00:00 TS -17.7137 176.296 main 101 84 ________P___P_ -1 -17.7200 176.299 37 991 -17.7075 176.293 TC 27 8 167
1970351S17176 1971 156 SP MM PRISCILLA 1970-12-17 00:00:00 TS -18.1000 176.400 40 990 wellington main 85 81 ________O___O_ -1 -18.1000 176.400 40 990 -18.1000 176.400 TC 30 8 164
1970351S17176 1971 156 SP MM PRISCILLA 1970-12-17 03:00:00 TS -18.4587 176.520 main 92 84 ________P___P_ -1 -18.4599 176.506 40 990 -18.4575 176.535 TC 30 8 160
1970351S17176 1971 156 SP MM PRISCILLA 1970-12-17 06:00:00 TS -18.8034 176.669 main 100 100 ________P___O_ -1 -18.8067 176.639 40 990 -18.8000 176.700 TC 30 8 156
1970351S17176 1971 156 SP MM PRISCILLA 1970-12-17 09:00:00 TS -19.1463 176.842 main 123 123 ________P___P_ -1 -19.1502 176.828 40 990 -19.1423 176.855 TC 32 8 150
1970351S17176 1971 156 SP MM PRISCILLA 1970-12-17 12:00:00 TS -19.5000 177.100 40 990 wellington main 154 154 ________O___O_ -1 -19.5000 177.100 40 990 -19.5000 177.100 TC 35 9 141
1970351S17176 1971 156 SP MM PRISCILLA 1970-12-17 15:00:00 TS -19.8711 177.459 main 183 183 ________P___P_ -1 -19.8421 177.414 40 990 -19.9001 177.505 TC 32 11 134
1970351S17176 1971 156 SP MM PRISCILLA 1970-12-17 18:00:00 TS -20.2475 177.911 main 212 212 ________P___O_ -1 -20.1951 177.821 40 990 -20.3000 178.000 TC 30 11 130
1970351S17176 1971 156 SP MM PRISCILLA 1970-12-17 21:00:00 TS -20.6011 178.385 main 258 258 ________P___P_ -1 -20.5756 178.343 40 990 -20.6267 178.426 TC 27 13 126
1970351S17176 1971 156 SP MM PRISCILLA 1970-12-18 00:00:00 TS -21.0000 179.000 40 990 wellington main 313 313 ________O___O_ -1 -21.0000 179.000 40 990 -21.0000 179.000 TC 25 16 123
1970351S17176 1971 156 SP MM PRISCILLA 1970-12-18 03:00:00 TS -21.4972 179.838 main 395 395 ________P___P_ -1 -21.4664 179.794 37 991 -21.5279 179.882 TC 22 20 122
1970351S17176 1971 156 SP MM PRISCILLA 1970-12-18 06:00:00 TS -22.0379 180.811 main 488 488 ________P___O_ -1 -21.9758 -179.278 35 993 -22.1000 -179.100 TC 20 21 120
1970351S17176 1971 156 SP MM PRISCILLA 1970-12-18 09:00:00 TS -22.5568 181.784 main 598 598 ________P___P_ -1 -22.5220 -178.261 32 995 -22.5915 -178.171 TC 17 21 120
1970351S17176 1971 156 SP MM PRISCILLA 1970-12-18 12:00:00 TS -23.1000 182.800 30 997 wellington main 703 703 ________O___O_ -1 -23.1000 -177.200 30 997 -23.1000 -177.200 TC 15 22 121
1970351S17176 1971 156 SP MM PRISCILLA 1970-12-18 15:00:00 TS -23.6912 183.877 main 826 826 ________P___P_ -1 -23.7050 -176.132 30 997 -23.6774 -176.115 TC 15 23 121
1970351S17176 1971 156 SP MM PRISCILLA 1970-12-18 18:00:00 TS -24.3147 184.969 main 952 952 ________P___O_ -1 -24.3294 -175.062 30 997 -24.3000 -175.000 TC 15 23 123
1970351S17176 1971 156 SP MM PRISCILLA 1970-12-18 21:00:00 TS -24.9551 186.040 main 1078 1078 ________P___P_ -1 -24.9642 -173.985 30 997 -24.9460 -173.935 TC 15 23 124
1970351S17176 1971 156 SP MM PRISCILLA 1970-12-19 00:00:00 TS -25.6000 187.100 30 997 wellington main 1205 ________O___O_ -1 -25.6000 -172.900 30 997 -25.6000 -172.900 TC 15 23 124

デジタル台風データ・検索

IBTrACS Databaseについて

本データベースは、米国NOAAが公開する1842年以降の世界の熱帯低気圧のベストトラックデータアーカイブInternational Best Track Archive for Climate Stewardship (IBTrACS)を、ウェブで閲覧しやすい形式に変換したものです。

最終更新日:2021-12-03